Time;durP1;ratioP1;P1;durP2;ratioP2;P2;SDS_P1;SDS_P2;PMS_P1;PMS_P2;Temp;Humidity;BMP_temperature;BMP_pressure;BME280_temperature;BME280_humidity;BME280_pressure;Samples;Min_cycle;Max_cycle;Signal;HPM_P1;HPM_P2
2024/01/30 00:01:24;;;;;;;14.50;6.93;;;;;;;;;;5034239;28;20194;-72
2024/01/30 00:03:51;;;;;;;7.40;6.65;;;;;;;;;;5034125;28;20273;-72
2024/01/30 00:06:20;;;;;;;6.70;6.10;;;;;;;;;;5034022;28;20190;-72
2024/01/30 00:08:48;;;;;;;8.45;6.97;;;;;;;;;;5034176;28;20222;-72
2024/01/30 00:11:17;;;;;;;7.65;6.82;;;;;;;;;;5034166;28;20202;-73
2024/01/30 00:13:44;;;;;;;7.95;6.65;;;;;;;;;;5034044;28;20218;-72
2024/01/30 00:16:21;;;;;;;7.28;5.78;;;;;;;;;;5034075;28;20278;-72
2024/01/30 00:18:48;;;;;;;10.60;6.40;;;;;;;;;;5033866;28;20554;-73
2024/01/30 00:21:15;;;;;;;10.02;6.18;;;;;;;;;;5034057;28;20644;-72
2024/01/30 00:23:42;;;;;;;8.80;5.70;;;;;;;;;;5033942;28;20277;-73
2024/01/30 00:26:09;;;;;;;7.25;5.50;;;;;;;;;;5033161;28;20219;-73
2024/01/30 00:28:37;;;;;;;4.97;4.47;;;;;;;;;;5033679;28;20228;-73
2024/01/30 00:31:05;;;;;;;10.27;5.80;;;;;;;;;;5033629;28;20604;-72
2024/01/30 00:33:32;;;;;;;7.50;4.82;;;;;;;;;;5033540;28;20191;-73
2024/01/30 00:35:58;;;;;;;8.70;5.60;;;;;;;;;;5033750;28;20190;-72
2024/01/30 00:38:25;;;;;;;5.28;4.78;;;;;;;;;;5033639;28;20273;-72
2024/01/30 00:40:52;;;;;;;7.93;4.80;;;;;;;;;;5033534;28;20226;-73
2024/01/30 00:43:21;;;;;;;5.20;4.70;;;;;;;;;;5033493;28;20190;-72
2024/01/30 00:45:50;;;;;;;8.52;5.47;;;;;;;;;;5033315;28;20220;-72
2024/01/30 00:48:17;;;;;;;6.18;4.55;;;;;;;;;;5033462;28;20309;-72
2024/01/30 00:50:44;;;;;;;6.05;5.45;;;;;;;;;;5033496;28;20591;-73
2024/01/30 00:53:11;;;;;;;5.55;4.80;;;;;;;;;;5033392;28;20229;-72
2024/01/30 00:55:38;;;;;;;7.10;5.10;;;;;;;;;;5033460;28;20706;-72
2024/01/30 00:58:05;;;;;;;6.85;5.05;;;;;;;;;;5033394;28;20187;-73
2024/01/30 01:00:33;;;;;;;6.70;5.35;;;;;;;;;;5033074;28;20253;-72
2024/01/30 01:03:01;;;;;;;6.90;4.78;;;;;;;;;;5033292;28;20194;-72
2024/01/30 01:05:29;;;;;;;9.18;4.80;;;;;;;;;;5033308;28;20197;-72
2024/01/30 01:07:56;;;;;;;6.43;5.75;;;;;;;;;;5033063;28;20218;-72
2024/01/30 01:10:23;;;;;;;8.07;5.45;;;;;;;;;;5033138;28;20190;-72
2024/01/30 01:12:50;;;;;;;5.85;5.25;;;;;;;;;;5033025;28;20195;-72
2024/01/30 01:15:17;;;;;;;6.65;5.93;;;;;;;;;;5032962;28;20634;-73
2024/01/30 01:17:44;;;;;;;7.80;5.18;;;;;;;;;;5033020;28;20217;-72
2024/01/30 01:20:13;;;;;;;11.85;4.85;;;;;;;;;;5033054;28;20710;-72
2024/01/30 01:22:40;;;;;;;7.43;6.22;;;;;;;;;;5032981;28;20198;-72
2024/01/30 01:25:08;;;;;;;12.43;6.47;;;;;;;;;;5032819;28;20190;-72
2024/01/30 01:27:40;;;;;;;8.95;5.90;;;;;;;;;;5032748;28;20642;-72
2024/01/30 01:30:08;;;;;;;6.85;4.97;;;;;;;;;;5032924;28;20194;-72
2024/01/30 01:32:36;;;;;;;8.73;5.32;;;;;;;;;;5032982;28;20618;-72
2024/01/30 01:35:05;;;;;;;7.82;5.32;;;;;;;;;;5032912;28;20199;-73
2024/01/30 01:37:33;;;;;;;9.43;5.18;;;;;;;;;;5033462;28;20194;-72
2024/01/30 01:40:01;;;;;;;7.45;5.70;;;;;;;;;;5036795;28;20531;-72
2024/01/30 01:42:28;;;;;;;6.57;5.25;;;;;;;;;;5037045;28;20191;-72
2024/01/30 01:44:55;;;;;;;12.68;6.35;;;;;;;;;;5036884;28;20190;-72
2024/01/30 01:47:22;;;;;;;8.80;6.00;;;;;;;;;;5036732;28;20201;-72
2024/01/30 01:49:49;;;;;;;8.05;5.80;;;;;;;;;;5036734;28;20197;-72
2024/01/30 01:52:16;;;;;;;8.95;6.15;;;;;;;;;;5036702;28;20274;-72
2024/01/30 01:54:45;;;;;;;8.18;6.07;;;;;;;;;;5036658;28;20285;-72
2024/01/30 01:57:12;;;;;;;7.25;6.50;;;;;;;;;;5036647;28;20195;-72
2024/01/30 01:59:39;;;;;;;8.23;6.75;;;;;;;;;;5036685;28;20279;-73
2024/01/30 02:02:06;;;;;;;9.55;5.93;;;;;;;;;;5036514;28;20217;-72
2024/01/30 02:04:33;;;;;;;8.43;6.68;;;;;;;;;;5036456;28;20195;-72
2024/01/30 02:07:00;;;;;;;8.30;7.05;;;;;;;;;;5036374;28;20701;-72
2024/01/30 02:09:27;;;;;;;7.50;5.90;;;;;;;;;;5036426;28;20226;-72
2024/01/30 02:11:55;;;;;;;8.48;6.10;;;;;;;;;;5036464;28;20601;-72
2024/01/30 02:14:22;;;;;;;10.05;6.25;;;;;;;;;;5036308;28;20201;-72
2024/01/30 02:16:49;;;;;;;9.85;5.78;;;;;;;;;;5036320;28;20195;-72
2024/01/30 02:19:16;;;;;;;7.75;6.15;;;;;;;;;;5036169;28;20226;-72
2024/01/30 02:21:45;;;;;;;9.88;5.80;;;;;;;;;;5036041;28;20281;-72
2024/01/30 02:24:12;;;;;;;9.52;6.30;;;;;;;;;;5036231;28;20286;-72
2024/01/30 02:26:39;;;;;;;8.77;6.22;;;;;;;;;;5035926;28;20305;-72
2024/01/30 02:29:06;;;;;;;8.57;6.35;;;;;;;;;;5036074;28;20325;-72
2024/01/30 02:31:33;;;;;;;10.05;6.78;;;;;;;;;;5035825;28;20705;-72
2024/01/30 02:33:59;;;;;;;8.02;6.15;;;;;;;;;;5035857;28;20646;-72
2024/01/30 02:36:26;;;;;;;9.38;6.32;;;;;;;;;;5036045;28;20190;-73
2024/01/30 02:38:55;;;;;;;10.45;6.10;;;;;;;;;;5035962;28;20278;-72
2024/01/30 02:41:22;;;;;;;6.88;6.15;;;;;;;;;;5035859;28;20681;-72
2024/01/30 02:43:49;;;;;;;9.55;6.50;;;;;;;;;;5035870;28;20214;-73
2024/01/30 02:46:16;;;;;;;10.23;6.93;;;;;;;;;;5035695;28;20722;-72
2024/01/30 02:48:43;;;;;;;8.75;5.82;;;;;;;;;;5034900;28;20265;-72
2024/01/30 02:51:09;;;;;;;7.55;6.65;;;;;;;;;;5035783;28;20190;-73
2024/01/30 02:53:36;;;;;;;7.30;6.60;;;;;;;;;;5035660;28;20273;-73
2024/01/30 02:56:05;;;;;;;8.07;6.30;;;;;;;;;;5035548;28;20617;-72
2024/01/30 02:58:32;;;;;;;7.22;6.47;;;;;;;;;;5035409;28;20297;-72
2024/01/30 03:00:59;;;;;;;14.30;7.15;;;;;;;;;;5035563;28;20598;-72
2024/01/30 03:03:26;;;;;;;11.15;6.35;;;;;;;;;;5035200;28;20197;-72
2024/01/30 03:05:53;;;;;;;7.80;6.07;;;;;;;;;;5035607;28;20277;-72
2024/01/30 03:08:20;;;;;;;9.68;6.72;;;;;;;;;;5035217;28;20321;-72
2024/01/30 03:10:48;;;;;;;10.25;6.85;;;;;;;;;;5035333;28;20202;-72
2024/01/30 03:13:16;;;;;;;10.43;7.05;;;;;;;;;;5035127;28;20281;-72
2024/01/30 03:15:43;;;;;;;7.68;6.60;;;;;;;;;;5035085;28;20197;-72
2024/01/30 03:18:10;;;;;;;10.88;7.50;;;;;;;;;;5035267;28;20286;-72
2024/01/30 03:20:37;;;;;;;10.75;6.75;;;;;;;;;;5035159;28;20599;-72
2024/01/30 03:23:04;;;;;;;11.30;6.78;;;;;;;;;;5035070;28;20190;-73
2024/01/30 03:25:31;;;;;;;8.15;6.55;;;;;;;;;;5034744;28;20765;-72
2024/01/30 03:27:57;;;;;;;8.75;6.30;;;;;;;;;;5034848;28;20548;-73
2024/01/30 03:30:26;;;;;;;10.57;6.47;;;;;;;;;;5034747;28;20197;-72
2024/01/30 03:32:53;;;;;;;12.70;6.50;;;;;;;;;;5034905;28;20199;-72
2024/01/30 03:35:20;;;;;;;9.60;6.22;;;;;;;;;;5034945;28;20207;-72
2024/01/30 03:37:47;;;;;;;9.18;6.40;;;;;;;;;;5034754;28;20193;-73
2024/01/30 03:40:15;;;;;;;7.45;5.50;;;;;;;;;;5034742;28;20195;-72
2024/01/30 03:42:41;;;;;;;8.20;7.22;;;;;;;;;;5034599;28;20194;-73
2024/01/30 03:45:09;;;;;;;8.70;6.90;;;;;;;;;;5034481;28;20194;-73
2024/01/30 03:47:37;;;;;;;6.57;5.10;;;;;;;;;;5034626;28;20201;-73
2024/01/30 03:50:05;;;;;;;10.90;7.20;;;;;;;;;;5034437;28;20314;-73
2024/01/30 03:52:32;;;;;;;9.85;6.60;;;;;;;;;;5034439;28;20194;-72
2024/01/30 03:54:59;;;;;;;10.85;6.85;;;;;;;;;;5034403;28;20197;-73
2024/01/30 03:57:26;;;;;;;9.98;7.65;;;;;;;;;;5034173;28;20190;-72
2024/01/30 03:59:54;;;;;;;8.68;6.72;;;;;;;;;;5033782;28;20191;-72
2024/01/30 04:02:21;;;;;;;8.77;6.30;;;;;;;;;;5034066;28;20224;-72
2024/01/30 04:04:49;;;;;;;12.35;7.82;;;;;;;;;;5034303;28;20629;-72
2024/01/30 04:07:16;;;;;;;9.38;7.22;;;;;;;;;;5034172;28;20187;-72
2024/01/30 04:09:43;;;;;;;10.07;6.70;;;;;;;;;;5033966;28;20215;-72
2024/01/30 04:12:10;;;;;;;8.82;6.88;;;;;;;;;;5033912;28;20195;-72
2024/01/30 04:14:39;;;;;;;12.50;7.75;;;;;;;;;;5034119;28;20273;-72
2024/01/30 04:17:06;;;;;;;8.98;7.60;;;;;;;;;;5034044;28;20200;-72
2024/01/30 04:19:33;;;;;;;8.30;6.72;;;;;;;;;;5033947;28;20195;-72
2024/01/30 04:22:01;;;;;;;10.13;6.95;;;;;;;;;;5033982;28;20187;-72
2024/01/30 04:24:28;;;;;;;10.70;6.35;;;;;;;;;;5033810;28;20285;-72
2024/01/30 04:26:55;;;;;;;8.55;6.32;;;;;;;;;;5033732;28;20301;-72
2024/01/30 04:29:22;;;;;;;11.73;7.65;;;;;;;;;;5033768;28;20619;-73
2024/01/30 04:31:50;;;;;;;8.63;6.80;;;;;;;;;;5033744;28;20621;-73
2024/01/30 04:34:17;;;;;;;9.65;7.30;;;;;;;;;;5033713;28;20350;-73
2024/01/30 04:36:45;;;;;;;9.98;7.07;;;;;;;;;;5033579;28;20273;-72
2024/01/30 04:39:14;;;;;;;8.63;6.80;;;;;;;;;;5033500;28;20194;-73
2024/01/30 04:41:41;;;;;;;9.00;7.05;;;;;;;;;;5033494;28;20733;-72
2024/01/30 04:44:08;;;;;;;8.93;7.80;;;;;;;;;;5033563;28;20277;-73
2024/01/30 04:46:34;;;;;;;9.85;7.03;;;;;;;;;;5033448;28;20197;-72
2024/01/30 04:49:03;;;;;;;10.80;7.15;;;;;;;;;;5033310;28;20254;-72
2024/01/30 04:51:30;;;;;;;8.82;7.93;;;;;;;;;;5033321;28;20645;-72
2024/01/30 04:53:57;;;;;;;11.18;7.60;;;;;;;;;;5033142;28;20205;-72
2024/01/30 04:56:25;;;;;;;12.48;6.95;;;;;;;;;;5033329;28;20186;-73
2024/01/30 04:58:52;;;;;;;8.90;7.35;;;;;;;;;;5033354;28;20289;-72
2024/01/30 05:01:19;;;;;;;7.97;7.05;;;;;;;;;;5033035;28;20187;-72
2024/01/30 05:03:46;;;;;;;14.50;7.22;;;;;;;;;;5033120;28;20282;-72
2024/01/30 05:06:13;;;;;;;8.27;6.85;;;;;;;;;;5033019;28;20209;-72
2024/01/30 05:08:40;;;;;;;15.43;9.95;;;;;;;;;;5033154;28;20214;-72
2024/01/30 05:11:07;;;;;;;11.82;9.35;;;;;;;;;;5032964;28;20308;-72
2024/01/30 05:13:35;;;;;;;12.38;8.82;;;;;;;;;;5033101;28;20282;-73
2024/01/30 05:16:04;;;;;;;9.35;8.32;;;;;;;;;;5032987;28;20195;-73
2024/01/30 05:18:31;;;;;;;13.50;7.60;;;;;;;;;;5032953;28;20218;-73
2024/01/30 05:20:57;;;;;;;11.07;8.05;;;;;;;;;;5032754;28;20662;-72
2024/01/30 05:23:24;;;;;;;10.25;7.57;;;;;;;;;;5033068;28;20191;-72
2024/01/30 05:25:51;;;;;;;11.18;7.45;;;;;;;;;;5032794;28;20241;-72
2024/01/30 05:28:18;;;;;;;9.68;7.40;;;;;;;;;;5032934;28;20187;-73
2024/01/30 05:30:47;;;;;;;12.40;7.88;;;;;;;;;;5032700;28;20336;-72
2024/01/30 05:33:14;;;;;;;9.57;8.23;;;;;;;;;;5032723;28;20647;-73
2024/01/30 05:35:40;;;;;;;11.73;8.40;;;;;;;;;;5032727;28;20195;-73
2024/01/30 05:38:07;;;;;;;13.05;7.43;;;;;;;;;;5032926;28;20193;-73
2024/01/30 05:40:34;;;;;;;18.48;8.07;;;;;;;;;;5032812;28;20281;-72
2024/01/30 05:43:02;;;;;;;9.68;7.70;;;;;;;;;;5032834;28;20277;-73
2024/01/30 05:45:29;;;;;;;12.48;8.55;;;;;;;;;;5032702;28;20218;-73
2024/01/30 05:47:57;;;;;;;9.55;7.60;;;;;;;;;;5032641;28;20222;-73
2024/01/30 05:50:26;;;;;;;11.10;7.90;;;;;;;;;;5032502;28;20729;-74
2024/01/30 05:52:53;;;;;;;14.13;9.18;;;;;;;;;;5032693;28;20678;-73
2024/01/30 05:55:20;;;;;;;10.82;7.90;;;;;;;;;;5032700;28;20708;-73
2024/01/30 05:57:47;;;;;;;8.70;7.22;;;;;;;;;;5032531;28;20229;-73
2024/01/30 06:00:14;;;;;;;11.65;7.93;;;;;;;;;;5032513;28;20605;-72
2024/01/30 06:02:41;;;;;;;8.20;7.40;;;;;;;;;;5032497;28;20546;-73
2024/01/30 06:05:10;;;;;;;13.23;8.90;;;;;;;;;;5032908;28;20187;-73
2024/01/30 06:07:37;;;;;;;11.38;8.52;;;;;;;;;;5032521;28;20187;-73
2024/01/30 06:10:04;;;;;;;15.68;10.20;;;;;;;;;;5032707;28;20326;-73
2024/01/30 06:12:31;;;;;;;11.07;8.35;;;;;;;;;;5032461;28;20261;-73
2024/01/30 06:14:58;;;;;;;11.30;8.45;;;;;;;;;;5032270;28;20193;-73
2024/01/30 06:17:25;;;;;;;11.23;7.78;;;;;;;;;;5032542;28;20654;-72
2024/01/30 06:19:52;;;;;;;21.90;12.48;;;;;;;;;;5032547;28;20277;-73
2024/01/30 06:22:20;;;;;;;12.95;10.65;;;;;;;;;;5032441;28;20195;-73
2024/01/30 06:24:48;;;;;;;11.38;8.45;;;;;;;;;;5034843;28;20191;-73
2024/01/30 06:27:15;;;;;;;11.20;6.78;;;;;;;;;;5035951;28;20202;-73
2024/01/30 06:29:42;;;;;;;14.85;9.18;;;;;;;;;;5035723;28;20218;-73
2024/01/30 06:32:09;;;;;;;9.20;8.00;;;;;;;;;;5036011;28;20634;-72
2024/01/30 06:34:38;;;;;;;10.65;8.23;;;;;;;;;;5035861;28;20273;-73
2024/01/30 06:37:05;;;;;;;12.02;8.57;;;;;;;;;;5035782;28;20237;-73
2024/01/30 06:39:33;;;;;;;12.90;8.45;;;;;;;;;;5035719;28;20278;-72
2024/01/30 06:42:00;;;;;;;15.23;8.27;;;;;;;;;;5035611;28;20201;-72
2024/01/30 06:44:28;;;;;;;12.55;9.02;;;;;;;;;;5035562;28;20677;-73
2024/01/30 06:46:55;;;;;;;12.63;8.73;;;;;;;;;;5035544;28;20195;-73
2024/01/30 06:49:22;;;;;;;11.63;8.10;;;;;;;;;;5035640;28;20221;-73
2024/01/30 06:51:49;;;;;;;10.13;8.13;;;;;;;;;;5035552;28;20191;-73
2024/01/30 06:54:16;;;;;;;10.48;7.35;;;;;;;;;;5035414;28;20190;-73
2024/01/30 06:56:44;;;;;;;12.68;8.20;;;;;;;;;;5035334;28;20285;-73
2024/01/30 06:59:11;;;;;;;14.77;7.93;;;;;;;;;;5035559;28;20202;-72
2024/01/30 07:01:38;;;;;;;12.88;7.95;;;;;;;;;;5035291;28;20369;-73
2024/01/30 07:04:05;;;;;;;11.45;8.50;;;;;;;;;;5035270;28;20713;-73
2024/01/30 07:06:32;;;;;;;14.23;8.63;;;;;;;;;;5035247;28;20190;-73
2024/01/30 07:08:59;;;;;;;15.15;9.10;;;;;;;;;;5035100;28;20614;-72
2024/01/30 07:11:27;;;;;;;13.60;8.65;;;;;;;;;;5035298;28;20190;-73
2024/01/30 07:13:55;;;;;;;14.63;8.32;;;;;;;;;;5035205;28;20191;-72
2024/01/30 07:16:23;;;;;;;10.20;7.85;;;;;;;;;;5035178;28;20187;-73
2024/01/30 07:18:50;;;;;;;15.50;8.23;;;;;;;;;;5034995;28;20278;-73
2024/01/30 07:21:17;;;;;;;9.18;7.70;;;;;;;;;;5034814;28;20673;-73
2024/01/30 07:23:44;;;;;;;9.05;7.03;;;;;;;;;;5034872;28;20677;-73
2024/01/30 07:26:11;;;;;;;18.15;7.55;;;;;;;;;;5034791;28;20652;-73
2024/01/30 07:28:38;;;;;;;8.57;7.30;;;;;;;;;;5034903;28;20190;-73
2024/01/30 07:31:06;;;;;;;12.65;9.32;;;;;;;;;;5034737;28;20250;-73
2024/01/30 07:33:33;;;;;;;11.88;8.40;;;;;;;;;;5034711;28;20229;-72
2024/01/30 07:36:00;;;;;;;11.40;9.07;;;;;;;;;;5034590;28;20190;-72
2024/01/30 07:38:27;;;;;;;10.27;9.00;;;;;;;;;;5034552;28;20682;-73
2024/01/30 07:40:54;;;;;;;10.27;8.95;;;;;;;;;;5034472;28;20285;-73
2024/01/30 07:43:22;;;;;;;11.65;8.52;;;;;;;;;;5034630;28;20273;-74
2024/01/30 07:45:49;;;;;;;12.00;10.00;;;;;;;;;;5034834;28;20669;-73
2024/01/30 07:48:17;;;;;;;13.73;9.48;;;;;;;;;;5034404;28;20654;-73
2024/01/30 07:50:44;;;;;;;11.75;8.35;;;;;;;;;;5034074;28;20789;-73
2024/01/30 07:53:11;;;;;;;11.68;9.52;;;;;;;;;;5034137;28;20718;-73
2024/01/30 07:55:39;;;;;;;12.52;9.35;;;;;;;;;;5034349;28;20205;-72
2024/01/30 07:58:06;;;;;;;11.95;8.80;;;;;;;;;;5034317;28;20194;-73
2024/01/30 08:00:33;;;;;;;15.57;11.32;;;;;;;;;;5034733;28;20281;-72
2024/01/30 08:03:00;;;;;;;15.90;9.60;;;;;;;;;;5034024;28;20201;-73
2024/01/30 08:05:28;;;;;;;12.60;9.52;;;;;;;;;;5033965;28;20187;-72
2024/01/30 08:07:55;;;;;;;12.43;9.18;;;;;;;;;;5034125;28;20190;-72
2024/01/30 08:10:22;;;;;;;13.52;9.23;;;;;;;;;;5034085;28;20313;-73
2024/01/30 08:12:49;;;;;;;12.10;8.88;;;;;;;;;;5034079;28;20254;-71
2024/01/30 08:15:16;;;;;;;13.02;9.25;;;;;;;;;;5033939;28;20193;-73
2024/01/30 08:17:44;;;;;;;12.07;9.18;;;;;;;;;;5033941;28;20201;-72
2024/01/30 08:20:11;;;;;;;15.20;9.68;;;;;;;;;;5033841;28;20264;-73
2024/01/30 08:22:40;;;;;;;12.68;9.27;;;;;;;;;;5033961;28;20277;-72
2024/01/30 08:25:09;;;;;;;12.27;8.77;;;;;;;;;;5033652;28;20191;-73
2024/01/30 08:27:38;;;;;;;13.95;9.55;;;;;;;;;;5033796;28;20194;-73
2024/01/30 08:30:05;;;;;;;10.65;9.40;;;;;;;;;;5033494;28;20219;-72
2024/01/30 08:32:34;;;;;;;13.10;8.70;;;;;;;;;;5033467;28;20206;-73
2024/01/30 08:35:03;;;;;;;14.85;9.70;;;;;;;;;;5033794;28;20193;-73
2024/01/30 08:37:30;;;;;;;16.85;9.30;;;;;;;;;;5033691;28;20285;-73
2024/01/30 08:39:58;;;;;;;10.13;9.05;;;;;;;;;;5033592;28;20191;-73
2024/01/30 08:42:25;;;;;;;15.00;8.88;;;;;;;;;;5025575;28;20241;-71
2024/01/30 08:44:53;;;;;;;12.32;9.02;;;;;;;;;;5017154;28;20590;-72
2024/01/30 08:47:20;;;;;;;19.08;9.88;;;;;;;;;;5022405;28;20183;-73
2024/01/30 08:49:47;;;;;;;10.90;8.38;;;;;;;;;;5023830;28;20221;-74
2024/01/30 08:52:13;;;;;;;16.45;9.00;;;;;;;;;;5022432;28;20555;-73
2024/01/30 08:54:40;;;;;;;14.80;9.33;;;;;;;;;;5022323;28;20290;-73
2024/01/30 08:57:09;;;;;;;11.13;8.30;;;;;;;;;;5023694;28;20876;-74
2024/01/30 08:59:36;;;;;;;13.00;9.05;;;;;;;;;;5022860;28;20585;-73
2024/01/30 09:02:04;;;;;;;15.47;9.83;;;;;;;;;;5021374;28;20865;-72
2024/01/30 09:04:31;;;;;;;17.00;10.48;;;;;;;;;;5021872;28;20442;-73
2024/01/30 09:06:58;;;;;;;11.43;8.80;;;;;;;;;;5022622;28;20595;-73
2024/01/30 09:09:25;;;;;;;11.57;8.40;;;;;;;;;;5023552;28;20450;-73
2024/01/30 09:11:51;;;;;;;11.30;7.80;;;;;;;;;;5021709;28;20569;-72
2024/01/30 09:14:20;;;;;;;12.33;8.40;;;;;;;;;;5022319;28;20527;-73
2024/01/30 09:16:48;;;;;;;16.05;9.70;;;;;;;;;;5023540;28;20802;-73
2024/01/30 09:19:15;;;;;;;14.23;8.60;;;;;;;;;;5022176;28;20652;-73
2024/01/30 09:21:42;;;;;;;11.82;7.95;;;;;;;;;;5021564;28;21003;-73
2024/01/30 09:24:09;;;;;;;9.63;7.80;;;;;;;;;;5023274;28;20178;-73
2024/01/30 09:26:37;;;;;;;9.20;8.17;;;;;;;;;;5021965;28;20279;-73
2024/01/30 09:29:03;;;;;;;13.53;7.90;;;;;;;;;;5021674;28;20541;-72
2024/01/30 09:31:32;;;;;;;9.40;7.57;;;;;;;;;;5021365;28;20514;-72
2024/01/30 09:33:59;;;;;;;11.00;7.77;;;;;;;;;;5022278;28;20512;-72
2024/01/30 09:36:27;;;;;;;9.50;7.80;;;;;;;;;;5023183;28;20453;-73
2024/01/30 09:38:54;;;;;;;14.33;8.67;;;;;;;;;;5021735;28;20192;-73
2024/01/30 09:41:21;;;;;;;9.47;7.33;;;;;;;;;;5021651;28;20477;-73
2024/01/30 09:43:49;;;;;;;8.33;7.10;;;;;;;;;;5022381;28;20442;-73
2024/01/30 09:46:18;;;;;;;16.10;8.27;;;;;;;;;;5021488;28;20437;-74
2024/01/30 09:48:48;;;;;;;11.23;7.43;;;;;;;;;;5021331;28;21000;-73
2024/01/30 09:51:15;;;;;;;9.10;8.03;;;;;;;;;;5021415;28;20992;-73
2024/01/30 09:53:44;;;;;;;12.77;8.80;;;;;;;;;;5023060;28;20646;-73
2024/01/30 09:56:11;;;;;;;9.63;7.37;;;;;;;;;;5022235;28;20447;-73
2024/01/30 09:58:39;;;;;;;11.97;8.43;;;;;;;;;;5018859;28;20529;-73
2024/01/30 10:01:06;;;;;;;17.13;8.20;;;;;;;;;;5025290;28;20445;-73
2024/01/30 10:03:34;;;;;;;11.10;8.57;;;;;;;;;;5025719;28;20452;-73
2024/01/30 10:06:02;;;;;;;15.37;7.90;;;;;;;;;;5024410;28;21004;-73
2024/01/30 10:08:29;;;;;;;9.67;7.53;;;;;;;;;;5025293;28;20449;-73
2024/01/30 10:10:56;;;;;;;11.93;7.73;;;;;;;;;;5025450;28;20496;-73
2024/01/30 10:13:23;;;;;;;14.93;7.67;;;;;;;;;;5024666;28;20950;-73
2024/01/30 10:15:52;;;;;;;9.20;7.23;;;;;;;;;;5024996;28;20515;-73
2024/01/30 10:18:19;;;;;;;13.90;7.50;;;;;;;;;;5024608;28;20525;-73
2024/01/30 10:20:46;;;;;;;10.93;6.50;;;;;;;;;;5024412;28;21042;-73
2024/01/30 10:23:14;;;;;;;7.17;6.47;;;;;;;;;;5025277;28;20563;-73
2024/01/30 10:25:41;;;;;;;11.30;7.90;;;;;;;;;;5024642;28;20556;-73
2024/01/30 10:28:08;;;;;;;9.80;7.13;;;;;;;;;;5023542;28;20487;-72
2024/01/30 10:30:35;;;;;;;8.13;6.87;;;;;;;;;;5024838;28;20489;-73
2024/01/30 10:33:02;;;;;;;10.47;7.50;;;;;;;;;;5024197;28;20449;-74
2024/01/30 10:35:29;;;;;;;7.77;6.90;;;;;;;;;;5025480;28;20541;-71
2024/01/30 10:37:59;;;;;;;8.63;6.50;;;;;;;;;;5024260;28;20449;-71
2024/01/30 10:40:29;;;;;;;8.07;6.43;;;;;;;;;;5024624;28;20894;-71
2024/01/30 10:42:56;;;;;;;15.07;6.27;;;;;;;;;;5020939;28;20442;-71
2024/01/30 10:45:24;;;;;;;9.97;7.47;;;;;;;;;;5025268;28;20837;-72
2024/01/30 10:47:51;;;;;;;9.83;7.50;;;;;;;;;;5024873;28;20533;-71
2024/01/30 10:50:18;;;;;;;9.80;7.50;;;;;;;;;;5024996;28;20480;-73
2024/01/30 10:52:46;;;;;;;6.70;5.70;;;;;;;;;;5024200;28;20551;-74
2024/01/30 10:55:14;;;;;;;10.33;7.10;;;;;;;;;;5025170;28;20469;-74
2024/01/30 10:57:42;;;;;;;7.83;6.77;;;;;;;;;;5025742;28;20448;-73
2024/01/30 11:00:10;;;;;;;9.93;7.13;;;;;;;;;;5025792;28;20897;-74
2024/01/30 11:02:39;;;;;;;8.70;7.07;;;;;;;;;;5024089;28;20447;-73
2024/01/30 11:05:06;;;;;;;8.30;6.03;;;;;;;;;;5024288;28;20441;-76
2024/01/30 11:07:33;;;;;;;7.87;6.50;;;;;;;;;;5025707;28;20448;-74
2024/01/30 11:10:04;;;;;;;12.67;7.40;;;;;;;;;;5023944;28;20446;-74
2024/01/30 11:12:33;;;;;;;7.10;5.73;;;;;;;;;;5023416;28;21005;-74
2024/01/30 11:15:05;;;;;;;7.00;6.30;;;;;;;;;;5024918;28;20947;-74
2024/01/30 11:17:41;;;;;;;9.67;6.67;;;;;;;;;;5025864;28;20450;-73
2024/01/30 11:20:11;;;;;;;8.60;5.93;;;;;;;;;;5034865;28;20449;-73
2024/01/30 11:22:38;;;;;;;6.93;5.50;;;;;;;;;;5034827;28;20457;-72
2024/01/30 11:25:05;;;;;;;5.93;5.43;;;;;;;;;;5034365;28;20944;-73
2024/01/30 11:27:32;;;;;;;7.63;6.37;;;;;;;;;;5034483;28;20937;-73
2024/01/30 11:30:02;;;;;;;10.83;7.33;;;;;;;;;;5034735;28;21036;-73
2024/01/30 11:32:31;;;;;;;10.67;6.53;;;;;;;;;;5034422;28;21032;-73
2024/01/30 11:34:58;;;;;;;7.10;5.90;;;;;;;;;;5034592;28;20452;-73
2024/01/30 11:37:27;;;;;;;12.30;6.27;;;;;;;;;;5034428;28;20966;-74
2024/01/30 11:39:55;;;;;;;10.67;6.90;;;;;;;;;;5034297;28;20445;-73
2024/01/30 11:42:24;;;;;;;9.00;7.00;;;;;;;;;;5034463;28;20480;-73
2024/01/30 11:44:51;;;;;;;8.30;5.40;;;;;;;;;;5034477;28;20481;-73
2024/01/30 11:47:18;;;;;;;8.20;5.70;;;;;;;;;;5034352;28;20445;-74
2024/01/30 11:49:47;;;;;;;11.33;6.67;;;;;;;;;;5034247;28;20885;-74
2024/01/30 11:52:14;;;;;;;11.90;7.00;;;;;;;;;;5033830;28;20484;-73
2024/01/30 11:54:41;;;;;;;14.40;6.50;;;;;;;;;;5033949;28;20521;-73
2024/01/30 11:57:08;;;;;;;11.50;6.73;;;;;;;;;;5034309;28;20476;-73
2024/01/30 11:59:35;;;;;;;9.80;6.60;;;;;;;;;;5034122;28;20446;-73
2024/01/30 12:02:03;;;;;;;8.67;7.10;;;;;;;;;;5034006;28;20552;-72
2024/01/30 12:04:30;;;;;;;8.30;6.57;;;;;;;;;;5033904;28;20449;-73
2024/01/30 12:06:58;;;;;;;15.43;7.80;;;;;;;;;;5033823;28;20540;-72
2024/01/30 12:09:25;;;;;;;9.50;6.47;;;;;;;;;;5033955;28;20533;-73
2024/01/30 12:11:52;;;;;;;7.50;5.60;;;;;;;;;;5033611;28;20573;-73
2024/01/30 12:14:22;;;;;;;9.03;6.30;;;;;;;;;;5033597;28;20457;-73
2024/01/30 12:16:50;;;;;;;8.17;6.40;;;;;;;;;;5033513;28;20441;-73
2024/01/30 12:19:22;;;;;;;11.20;6.60;;;;;;;;;;5033379;28;20452;-73
2024/01/30 12:21:55;;;;;;;11.03;6.20;;;;;;;;;;5032422;28;20476;-73
2024/01/30 12:24:23;;;;;;;8.40;7.17;;;;;;;;;;5033198;28;20886;-74
2024/01/30 12:26:51;;;;;;;9.77;5.40;;;;;;;;;;5033123;28;20999;-73
2024/01/30 12:29:18;;;;;;;7.77;5.57;;;;;;;;;;5033376;28;20444;-73
2024/01/30 12:31:46;;;;;;;7.27;6.20;;;;;;;;;;5033150;28;20481;-73
2024/01/30 12:34:15;;;;;;;11.07;5.70;;;;;;;;;;5033282;28;20445;-74
2024/01/30 12:36:42;;;;;;;13.70;5.67;;;;;;;;;;5033157;28;20936;-73
2024/01/30 12:39:12;;;;;;;5.57;4.87;;;;;;;;;;5033363;28;20445;-73
2024/01/30 12:41:41;;;;;;;7.50;5.60;;;;;;;;;;5033255;28;20500;-74
2024/01/30 12:44:08;;;;;;;14.10;5.83;;;;;;;;;;5033081;28;20876;-74
2024/01/30 12:46:35;;;;;;;6.70;5.37;;;;;;;;;;5033125;28;20532;-73
2024/01/30 12:49:02;;;;;;;6.30;4.97;;;;;;;;;;5033332;28;20443;-72
2024/01/30 12:51:29;;;;;;;6.00;5.43;;;;;;;;;;5033003;28;20484;-72
2024/01/30 12:53:56;;;;;;;9.20;5.60;;;;;;;;;;5033169;28;20907;-73
2024/01/30 12:56:23;;;;;;;6.37;5.67;;;;;;;;;;5032904;28;20994;-73
2024/01/30 12:58:52;;;;;;;7.70;5.17;;;;;;;;;;5033045;28;20576;-75
2024/01/30 13:01:19;;;;;;;6.60;5.90;;;;;;;;;;5032806;28;20445;-73
2024/01/30 13:03:46;;;;;;;9.13;5.67;;;;;;;;;;5033018;28;20441;-73
2024/01/30 13:06:13;;;;;;;5.17;4.67;;;;;;;;;;5032906;28;20527;-74
2024/01/30 13:08:39;;;;;;;5.70;5.20;;;;;;;;;;5032931;28;20853;-76
2024/01/30 13:11:06;;;;;;;8.90;5.70;;;;;;;;;;5032744;28;20499;-74
2024/01/30 13:13:35;;;;;;;7.97;5.10;;;;;;;;;;5032855;28;20813;-74
2024/01/30 13:16:04;;;;;;;5.80;5.20;;;;;;;;;;5032912;28;20445;-73
2024/01/30 13:18:31;;;;;;;7.40;5.63;;;;;;;;;;5032733;28;20471;-75
2024/01/30 13:20:58;;;;;;;12.40;6.10;;;;;;;;;;5032760;28;20445;-74
2024/01/30 13:23:25;;;;;;;7.90;5.70;;;;;;;;;;5032775;28;20456;-73
2024/01/30 13:25:53;;;;;;;7.27;5.87;;;;;;;;;;5032397;28;20469;-73
2024/01/30 13:28:20;;;;;;;5.67;5.10;;;;;;;;;;5032522;28;20796;-73
2024/01/30 13:30:47;;;;;;;7.83;5.80;;;;;;;;;;5032678;28;20540;-74
2024/01/30 13:33:15;;;;;;;8.17;5.90;;;;;;;;;;5035845;28;20904;-74
2024/01/30 13:35:42;;;;;;;7.57;5.60;;;;;;;;;;5039174;28;20544;-73
2024/01/30 13:38:10;;;;;;;5.97;4.83;;;;;;;;;;5038733;28;20535;-73
2024/01/30 13:40:37;;;;;;;6.80;5.07;;;;;;;;;;5026628;28;20445;-74
2024/01/30 13:43:04;;;;;;;7.10;6.40;;;;;;;;;;5028505;28;20455;-72
2024/01/30 13:45:31;;;;;;;8.67;5.60;;;;;;;;;;5027688;28;20437;-71
2024/01/30 13:47:59;;;;;;;6.83;4.90;;;;;;;;;;5024057;28;20825;-71
2024/01/30 13:50:27;;;;;;;5.80;5.30;;;;;;;;;;5029230;28;20446;-73
2024/01/30 13:52:54;;;;;;;5.80;4.87;;;;;;;;;;5024909;28;20484;-73
2024/01/30 13:55:21;;;;;;;5.30;4.80;;;;;;;;;;5027448;28;20532;-73
2024/01/30 13:57:48;;;;;;;8.57;5.10;;;;;;;;;;5026177;28;20444;-73
2024/01/30 14:00:16;;;;;;;6.50;5.00;;;;;;;;;;5028580;28;20452;-73
2024/01/30 14:02:43;;;;;;;7.30;5.53;;;;;;;;;;5027991;28;20454;-74
2024/01/30 14:05:10;;;;;;;11.63;4.87;;;;;;;;;;5019355;28;20536;-74
2024/01/30 14:07:40;;;;;;;9.53;5.80;;;;;;;;;;5029805;28;20445;-72
2024/01/30 14:10:07;;;;;;;6.37;5.73;;;;;;;;;;5029411;28;20446;-73
2024/01/30 14:12:34;;;;;;;6.13;5.53;;;;;;;;;;5019402;28;20485;-74
2024/01/30 14:15:01;;;;;;;6.93;6.13;;;;;;;;;;5035360;28;20441;-72
2024/01/30 14:17:28;;;;;;;6.97;6.27;;;;;;;;;;5019114;28;20536;-73
2024/01/30 14:19:55;;;;;;;5.60;5.00;;;;;;;;;;5028636;28;20886;-73
2024/01/30 14:22:22;;;;;;;7.57;5.80;;;;;;;;;;5020327;28;20857;-73
2024/01/30 14:24:50;;;;;;;6.57;5.83;;;;;;;;;;5019198;28;20537;-73
2024/01/30 14:27:17;;;;;;;5.90;5.27;;;;;;;;;;5018791;28;20476;-73
2024/01/30 14:29:44;;;;;;;6.17;5.57;;;;;;;;;;5018952;28;20876;-73
2024/01/30 14:32:11;;;;;;;9.73;5.53;;;;;;;;;;5018801;28;20513;-74
2024/01/30 14:34:38;;;;;;;6.90;6.13;;;;;;;;;;5036504;28;20506;-71
2024/01/30 14:37:06;;;;;;;7.00;5.30;;;;;;;;;;5034142;28;20446;-71